Time;durP1;ratioP1;P1;durP2;ratioP2;P2;SDS_P1;SDS_P2;PMS_P1;PMS_P2;Temp;Humidity;BMP_temperature;BMP_pressure;BME280_temperature;BME280_humidity;BME280_pressure;Samples;Min_cycle;Max_cycle;Signal;HPM_P1;HPM_P2
2021/01/28 00:00:06;;;;;;;125.70;29.95;;;;;;;;;;5115821;27;20031;-72
2021/01/28 00:02:32;;;;;;;101.50;26.27;;;;;;;;;;5110546;27;20068;-72
2021/01/28 00:04:58;;;;;;;391.40;55.17;;;;;;;;;;5108298;27;20027;-73
2021/01/28 00:07:24;;;;;;;410.73;55.85;;;;;;;;;;5116787;27;20031;-72
2021/01/28 00:09:50;;;;;;;112.68;27.30;;;;;;;;;;5126523;27;20485;-72
2021/01/28 00:12:16;;;;;;;184.32;33.80;;;;;;;;;;5113884;27;20510;-72
2021/01/28 00:14:42;;;;;;;175.07;33.25;;;;;;;;;;5110331;27;20032;-73
2021/01/28 00:17:09;;;;;;;180.77;32.88;;;;;;;;;;5101235;28;20042;-72
2021/01/28 00:19:35;;;;;;;201.70;35.90;;;;;;;;;;5095784;28;20040;-72
2021/01/28 00:22:01;;;;;;;162.30;32.17;;;;;;;;;;5092491;28;20035;-72
2021/01/28 00:24:27;;;;;;;147.98;30.83;;;;;;;;;;5094409;28;20070;-73
2021/01/28 00:26:53;;;;;;;382.73;57.55;;;;;;;;;;5105192;27;20020;-72
2021/01/28 00:29:19;;;;;;;547.17;69.05;;;;;;;;;;5112061;28;20031;-73
2021/01/28 00:31:45;;;;;;;486.73;63.97;;;;;;;;;;5109052;28;20541;-72
2021/01/28 00:34:11;;;;;;;498.42;62.55;;;;;;;;;;5108228;28;20016;-72
2021/01/28 00:36:37;;;;;;;525.72;66.00;;;;;;;;;;5116918;27;20038;-72
2021/01/28 00:39:05;;;;;;;457.13;58.53;;;;;;;;;;5120927;27;20027;-73
2021/01/28 00:41:31;;;;;;;448.27;58.13;;;;;;;;;;5113789;27;20032;-73
2021/01/28 00:43:57;;;;;;;139.65;33.50;;;;;;;;;;5110663;28;20031;-72
2021/01/28 00:46:23;;;;;;;471.83;59.83;;;;;;;;;;5122637;27;20019;-72
2021/01/28 00:48:49;;;;;;;445.52;56.97;;;;;;;;;;5115369;27;20031;-73
2021/01/28 00:51:16;;;;;;;242.23;44.50;;;;;;;;;;5118110;27;20019;-72
2021/01/28 00:53:42;;;;;;;414.85;55.60;;;;;;;;;;5119972;27;20031;-72
2021/01/28 00:56:08;;;;;;;119.22;31.08;;;;;;;;;;5112973;27;20031;-73
2021/01/28 00:58:34;;;;;;;102.30;29.58;;;;;;;;;;5104445;28;20032;-73
2021/01/28 01:01:01;;;;;;;224.63;39.42;;;;;;;;;;5113567;27;20031;-72
2021/01/28 01:03:28;;;;;;;434.17;58.90;;;;;;;;;;5113662;27;20157;-72
2021/01/28 01:05:54;;;;;;;497.77;70.05;;;;;;;;;;5109955;28;20028;-72
2021/01/28 01:08:22;;;;;;;464.27;66.45;;;;;;;;;;5107035;27;20016;-72
2021/01/28 01:10:50;;;;;;;119.65;31.30;;;;;;;;;;5114404;27;20019;-72
2021/01/28 01:13:18;;;;;;;150.20;35.88;;;;;;;;;;5102881;28;20023;-73
2021/01/28 01:15:45;;;;;;;245.95;45.53;;;;;;;;;;5108500;28;20019;-73
2021/01/28 01:18:13;;;;;;;503.60;68.45;;;;;;;;;;5103291;28;20043;-72
2021/01/28 01:20:39;;;;;;;442.85;64.18;;;;;;;;;;5105672;27;20485;-72
2021/01/28 01:23:06;;;;;;;497.23;79.50;;;;;;;;;;5101136;27;20036;-73
2021/01/28 01:25:32;;;;;;;454.85;80.10;;;;;;;;;;5113845;27;20026;-73
2021/01/28 01:27:58;;;;;;;470.80;76.85;;;;;;;;;;5109632;28;20043;-73
2021/01/28 01:30:25;;;;;;;491.75;72.20;;;;;;;;;;5111235;28;20488;-73
2021/01/28 01:32:51;;;;;;;491.92;67.20;;;;;;;;;;5108457;28;20112;-73
2021/01/28 01:35:18;;;;;;;145.15;37.63;;;;;;;;;;5107822;28;20034;-73
2021/01/28 01:37:45;;;;;;;162.70;40.72;;;;;;;;;;5102361;28;20035;-73
2021/01/28 01:40:13;;;;;;;625.33;83.18;;;;;;;;;;5111492;28;20030;-73
2021/01/28 01:42:42;;;;;;;646.50;91.07;;;;;;;;;;5108750;28;20023;-73
2021/01/28 01:45:09;;;;;;;562.10;80.55;;;;;;;;;;5110335;28;20020;-73
2021/01/28 01:47:48;;;;;;;542.60;82.75;;;;;;;;;;5117510;27;21351;-73
2021/01/28 01:50:23;;;;;;;538.08;84.10;;;;;;;;;;5110072;27;20026;-73
2021/01/28 01:52:49;;;;;;;530.25;86.03;;;;;;;;;;5104639;28;20145;-73
2021/01/28 01:55:16;;;;;;;298.15;62.58;;;;;;;;;;5112052;27;20047;-73
2021/01/28 01:57:42;;;;;;;462.98;79.80;;;;;;;;;;5108393;28;20024;-73
2021/01/28 02:00:16;;;;;;;624.53;100.38;;;;;;;;;;5111288;28;20481;-73
2021/01/28 02:02:44;;;;;;;555.75;91.03;;;;;;;;;;5116484;27;20090;-73
2021/01/28 02:05:13;;;;;;;584.97;98.50;;;;;;;;;;5110411;28;20032;-73
2021/01/28 02:07:40;;;;;;;579.47;102.03;;;;;;;;;;5110595;28;20177;-73
2021/01/28 02:10:07;;;;;;;697.85;114.25;;;;;;;;;;5110680;28;20023;-73
2021/01/28 02:12:34;;;;;;;222.80;61.40;;;;;;;;;;5106562;28;20035;-73
2021/01/28 02:15:00;;;;;;;228.60;62.85;;;;;;;;;;5110291;27;20035;-73
2021/01/28 02:17:26;;;;;;;632.15;107.05;;;;;;;;;;5110219;28;20024;-73
2021/01/28 02:19:52;;;;;;;212.80;58.80;;;;;;;;;;5109792;28;20035;-73
2021/01/28 02:22:20;;;;;;;658.22;110.43;;;;;;;;;;5108628;28;20027;-73
2021/01/28 02:24:58;;;;;;;491.92;93.05;;;;;;;;;;5123022;28;20032;-73
2021/01/28 02:27:24;;;;;;;304.23;74.20;;;;;;;;;;5112487;28;20089;-73
2021/01/28 02:29:50;;;;;;;647.33;111.53;;;;;;;;;;5106743;28;20027;-74
2021/01/28 02:32:16;;;;;;;208.55;61.40;;;;;;;;;;5108383;28;20024;-73
2021/01/28 02:34:43;;;;;;;652.58;112.18;;;;;;;;;;5109546;28;20127;-73
2021/01/28 02:37:14;;;;;;;657.95;117.28;;;;;;;;;;5102258;28;20031;-74
2021/01/28 02:39:40;;;;;;;462.88;89.13;;;;;;;;;;5111502;28;20020;-74
2021/01/28 02:42:24;;;;;;;495.38;100.43;;;;;;;;;;5109935;28;20036;-74
2021/01/28 02:44:50;;;;;;;426.92;99.35;;;;;;;;;;5114922;28;20404;-73
2021/01/28 02:47:16;;;;;;;302.60;74.63;;;;;;;;;;5111005;27;20126;-73
2021/01/28 02:49:43;;;;;;;504.13;101.30;;;;;;;;;;5109868;28;20073;-74
2021/01/28 02:52:09;;;;;;;284.50;74.45;;;;;;;;;;5114581;28;20080;-73
2021/01/28 02:54:42;;;;;;;452.30;96.75;;;;;;;;;;5109292;28;20405;-73
2021/01/28 02:57:08;;;;;;;457.08;93.13;;;;;;;;;;5110512;28;20022;-73
2021/01/28 02:59:34;;;;;;;349.48;82.68;;;;;;;;;;5114755;28;20106;-73
2021/01/28 03:02:20;;;;;;;335.63;84.25;;;;;;;;;;5102088;28;20032;-73
2021/01/28 03:04:47;;;;;;;438.70;89.80;;;;;;;;;;5104614;28;20063;-73
2021/01/28 03:07:13;;;;;;;208.38;64.18;;;;;;;;;;5109339;28;20056;-72
2021/01/28 03:09:40;;;;;;;216.93;67.13;;;;;;;;;;5111022;28;20028;-73
2021/01/28 03:12:07;;;;;;;220.23;67.25;;;;;;;;;;5117979;28;20028;-73
2021/01/28 03:14:33;;;;;;;368.35;83.40;;;;;;;;;;5111884;28;20036;-73
2021/01/28 03:16:59;;;;;;;237.80;69.50;;;;;;;;;;5102976;28;20024;-73
2021/01/28 03:19:26;;;;;;;176.55;57.58;;;;;;;;;;5109936;28;20027;-73
2021/01/28 03:21:52;;;;;;;205.95;61.42;;;;;;;;;;5108373;28;20063;-73
2021/01/28 03:24:18;;;;;;;159.10;53.05;;;;;;;;;;5109964;28;20028;-73
2021/01/28 03:26:44;;;;;;;194.82;58.30;;;;;;;;;;5110223;28;20054;-73
2021/01/28 03:29:11;;;;;;;222.45;56.97;;;;;;;;;;5100654;28;20509;-73
2021/01/28 03:31:38;;;;;;;190.65;53.22;;;;;;;;;;5111853;28;20024;-73
2021/01/28 03:34:05;;;;;;;242.40;57.63;;;;;;;;;;5098139;28;20019;-73
2021/01/28 03:36:31;;;;;;;189.57;53.83;;;;;;;;;;5102865;28;20027;-72
2021/01/28 03:38:57;;;;;;;201.85;50.13;;;;;;;;;;5114282;27;20028;-73
2021/01/28 03:41:23;;;;;;;216.25;54.22;;;;;;;;;;5112175;28;20512;-73
2021/01/28 03:43:49;;;;;;;213.57;57.28;;;;;;;;;;5116904;27;20035;-73
2021/01/28 03:46:15;;;;;;;209.02;60.78;;;;;;;;;;5107029;27;20091;-73
2021/01/28 03:48:41;;;;;;;229.98;61.53;;;;;;;;;;5106815;28;20386;-73
2021/01/28 03:51:07;;;;;;;173.60;55.97;;;;;;;;;;5109892;27;20440;-73
2021/01/28 03:53:33;;;;;;;128.60;47.55;;;;;;;;;;5116373;27;20070;-73
2021/01/28 03:55:59;;;;;;;189.65;59.35;;;;;;;;;;5113758;27;20027;-73
2021/01/28 03:58:25;;;;;;;208.40;60.38;;;;;;;;;;5112933;28;20404;-73
2021/01/28 04:00:51;;;;;;;209.38;60.42;;;;;;;;;;5112384;27;20032;-73
2021/01/28 04:03:18;;;;;;;212.07;60.22;;;;;;;;;;5104721;27;20042;-73
2021/01/28 04:05:44;;;;;;;130.25;46.67;;;;;;;;;;5114282;27;20107;-73
2021/01/28 04:08:10;;;;;;;169.88;51.88;;;;;;;;;;5113156;28;20100;-73
2021/01/28 04:10:37;;;;;;;135.15;45.80;;;;;;;;;;5115323;27;20068;-73
2021/01/28 04:13:04;;;;;;;193.70;56.70;;;;;;;;;;5111683;28;20022;-73
2021/01/28 04:15:31;;;;;;;172.13;53.97;;;;;;;;;;5115014;27;20031;-73
2021/01/28 04:17:57;;;;;;;104.43;39.10;;;;;;;;;;5108623;27;20111;-73
2021/01/28 04:20:26;;;;;;;134.77;44.60;;;;;;;;;;5107256;28;20074;-73
2021/01/28 04:22:52;;;;;;;98.95;34.90;;;;;;;;;;5104631;28;20043;-73
2021/01/28 04:25:18;;;;;;;128.25;39.38;;;;;;;;;;5115790;27;20028;-73
2021/01/28 04:27:44;;;;;;;93.97;31.35;;;;;;;;;;5111929;28;20027;-73
2021/01/28 04:30:12;;;;;;;103.50;32.53;;;;;;;;;;5116714;27;20639;-73
2021/01/28 04:32:38;;;;;;;98.22;31.83;;;;;;;;;;5111774;27;20031;-73
2021/01/28 04:35:06;;;;;;;89.00;26.60;;;;;;;;;;5107602;27;20023;-73
2021/01/28 04:37:32;;;;;;;90.15;28.52;;;;;;;;;;5112266;28;20035;-73
2021/01/28 04:39:58;;;;;;;86.63;26.05;;;;;;;;;;5123155;27;20488;-73
2021/01/28 04:42:31;;;;;;;76.07;25.02;;;;;;;;;;5113964;27;20031;-73
2021/01/28 04:44:57;;;;;;;99.72;29.75;;;;;;;;;;5116785;27;20031;-73
2021/01/28 04:47:24;;;;;;;107.40;31.25;;;;;;;;;;5116202;27;20072;-73
2021/01/28 04:49:54;;;;;;;86.47;26.65;;;;;;;;;;5112438;27;20027;-72
2021/01/28 04:52:22;;;;;;;90.80;27.60;;;;;;;;;;5107876;28;20028;-73
2021/01/28 04:54:49;;;;;;;85.03;26.30;;;;;;;;;;5112164;28;20035;-73
2021/01/28 04:57:15;;;;;;;90.57;27.98;;;;;;;;;;5110404;28;20035;-73
2021/01/28 04:59:43;;;;;;;74.20;21.23;;;;;;;;;;5111823;28;20023;-73
2021/01/28 05:02:14;;;;;;;91.95;26.48;;;;;;;;;;5113130;27;20067;-73
2021/01/28 05:04:48;;;;;;;90.03;24.48;;;;;;;;;;5110834;28;20484;-74
2021/01/28 05:07:18;;;;;;;80.03;23.25;;;;;;;;;;5112059;27;20023;-73
2021/01/28 05:09:44;;;;;;;72.65;22.17;;;;;;;;;;5123839;27;20509;-73
2021/01/28 05:12:21;;;;;;;64.78;20.38;;;;;;;;;;5109932;27;20088;-73
2021/01/28 05:14:47;;;;;;;67.38;19.20;;;;;;;;;;5111712;28;20024;-73
2021/01/28 05:17:20;;;;;;;65.22;22.98;;;;;;;;;;5114328;27;20044;-73
2021/01/28 05:19:48;;;;;;;46.70;14.40;;;;;;;;;;5113471;27;20125;-73
2021/01/28 05:22:24;;;;;;;57.65;17.95;;;;;;;;;;5113552;27;20059;-72
2021/01/28 05:24:52;;;;;;;56.67;19.92;;;;;;;;;;5113834;27;20145;-73
2021/01/28 05:27:24;;;;;;;64.97;18.30;;;;;;;;;;5120556;27;20050;-73
2021/01/28 05:29:50;;;;;;;61.25;17.25;;;;;;;;;;5118049;27;20473;-73
2021/01/28 05:32:35;;;;;;;45.10;15.23;;;;;;;;;;5107641;28;20024;-73
2021/01/28 05:35:16;;;;;;;47.85;16.98;;;;;;;;;;5106618;28;20031;-73
2021/01/28 05:37:42;;;;;;;54.83;18.57;;;;;;;;;;5123944;27;20087;-73
2021/01/28 05:40:20;;;;;;;55.47;17.92;;;;;;;;;;5121302;27;20165;-73
2021/01/28 05:42:46;;;;;;;49.10;15.18;;;;;;;;;;5108853;28;20019;-73
2021/01/28 05:45:31;;;;;;;48.20;17.38;;;;;;;;;;5108214;28;20088;-72
2021/01/28 05:48:12;;;;;;;49.78;14.15;;;;;;;;;;5106220;27;20080;-73
2021/01/28 05:50:38;;;;;;;43.08;14.27;;;;;;;;;;5113317;27;20027;-73
2021/01/28 05:53:08;;;;;;;46.17;15.80;;;;;;;;;;5112479;27;20020;-72
2021/01/28 05:55:34;;;;;;;39.83;14.20;;;;;;;;;;5109484;28;20023;-73
2021/01/28 05:58:03;;;;;;;34.72;12.52;;;;;;;;;;5109102;28;20035;-73
2021/01/28 06:00:45;;;;;;;38.67;13.23;;;;;;;;;;5108707;28;20051;-73
2021/01/28 06:03:25;;;;;;;34.78;13.98;;;;;;;;;;5106775;28;20100;-72
2021/01/28 06:05:57;;;;;;;36.40;12.00;;;;;;;;;;5106623;28;20058;-73
2021/01/28 06:08:42;;;;;;;37.80;14.18;;;;;;;;;;5105159;28;20031;-73
2021/01/28 06:11:26;;;;;;;36.65;13.98;;;;;;;;;;5104985;28;20015;-73
2021/01/28 06:13:52;;;;;;;36.05;14.43;;;;;;;;;;5109642;27;20039;-73
2021/01/28 06:16:24;;;;;;;31.90;11.82;;;;;;;;;;5107487;28;20421;-73
2021/01/28 06:18:50;;;;;;;29.25;10.60;;;;;;;;;;5108223;28;20035;-73
2021/01/28 06:21:35;;;;;;;29.58;11.80;;;;;;;;;;5106138;28;20032;-72
2021/01/28 06:24:14;;;;;;;27.10;10.95;;;;;;;;;;5108306;28;20115;-73
2021/01/28 06:27:03;;;;;;;32.08;12.20;;;;;;;;;;5109068;28;20024;-73
2021/01/28 06:29:41;;;;;;;27.38;11.27;;;;;;;;;;5108275;28;20127;-73
2021/01/28 06:32:07;;;;;;;29.27;12.23;;;;;;;;;;5104543;28;20073;-73
2021/01/28 06:34:33;;;;;;;30.98;12.90;;;;;;;;;;5100754;28;20027;-72
2021/01/28 06:37:14;;;;;;;24.83;9.80;;;;;;;;;;5109688;27;20389;-73
2021/01/28 06:39:42;;;;;;;26.02;10.20;;;;;;;;;;5105100;28;20035;-73
2021/01/28 06:42:16;;;;;;;24.17;10.20;;;;;;;;;;5103083;28;20030;-73
2021/01/28 06:44:49;;;;;;;25.77;10.05;;;;;;;;;;5102612;28;20032;-73
2021/01/28 06:47:15;;;;;;;29.02;12.13;;;;;;;;;;5108944;28;20031;-73
2021/01/28 06:50:00;;;;;;;28.00;10.55;;;;;;;;;;5109701;28;20500;-73
2021/01/28 06:52:45;;;;;;;28.20;9.90;;;;;;;;;;5105474;28;20127;-73
2021/01/28 06:55:23;;;;;;;30.02;12.65;;;;;;;;;;5108269;28;20051;-72
2021/01/28 06:57:55;;;;;;;28.75;11.32;;;;;;;;;;5110264;28;20118;-73
2021/01/28 07:00:39;;;;;;;31.27;12.60;;;;;;;;;;5108145;28;20023;-72
2021/01/28 07:03:05;;;;;;;27.65;11.35;;;;;;;;;;5107506;28;20085;-72
2021/01/28 07:05:31;;;;;;;33.22;13.70;;;;;;;;;;5107849;28;20111;-72
2021/01/28 07:08:00;;;;;;;23.48;9.38;;;;;;;;;;5105558;28;20103;-73
2021/01/28 07:10:35;;;;;;;23.35;9.05;;;;;;;;;;5109218;28;20027;-73
2021/01/28 07:13:02;;;;;;;30.83;11.57;;;;;;;;;;5103581;28;20059;-73
2021/01/28 07:15:28;;;;;;;27.50;11.90;;;;;;;;;;5111588;27;20024;-73
2021/01/28 07:17:58;;;;;;;24.63;9.80;;;;;;;;;;5104220;27;20028;-73
2021/01/28 07:20:31;;;;;;;32.33;13.02;;;;;;;;;;5112804;27;20038;-73
2021/01/28 07:23:14;;;;;;;30.70;11.45;;;;;;;;;;5105385;27;20043;-72
2021/01/28 07:25:40;;;;;;;33.70;12.43;;;;;;;;;;5107532;28;20054;-72
2021/01/28 07:28:12;;;;;;;25.60;10.70;;;;;;;;;;5111023;28;20027;-73
2021/01/28 07:30:38;;;;;;;;;;;;;;;;;;5117289;27;20110;-73
2021/01/28 07:33:05;;;;;;;29.40;12.50;;;;;;;;;;5108447;27;19958;-72
2021/01/28 07:35:35;;;;;;;29.38;14.30;;;;;;;;;;5111459;28;20088;-73
2021/01/28 07:38:20;;;;;;;31.40;12.93;;;;;;;;;;5106464;28;20607;-72
2021/01/28 07:41:05;;;;;;;27.77;10.85;;;;;;;;;;5110979;27;20031;-73
2021/01/28 07:43:36;;;;;;;26.70;11.43;;;;;;;;;;5106716;28;20042;-73
2021/01/28 07:46:19;;;;;;;25.58;9.85;;;;;;;;;;5100911;28;20106;-73
2021/01/28 07:48:47;;;;;;;27.95;11.40;;;;;;;;;;5103963;27;20497;-73
2021/01/28 07:51:32;;;;;;;29.50;12.70;;;;;;;;;;5107276;27;20027;-73
2021/01/28 07:53:59;;;;;;;29.88;12.48;;;;;;;;;;5105793;28;20072;-73
2021/01/28 07:56:42;;;;;;;24.65;10.93;;;;;;;;;;5115577;27;20011;-74
2021/01/28 07:59:12;;;;;;;25.92;12.23;;;;;;;;;;5119655;27;20035;-74
2021/01/28 08:01:40;;;;;;;29.77;13.05;;;;;;;;;;5108723;27;20054;-74
2021/01/28 08:04:12;;;;;;;29.40;14.57;;;;;;;;;;5114283;27;20027;-74
2021/01/28 08:06:39;;;;;;;26.77;12.30;;;;;;;;;;5111403;28;20488;-74
2021/01/28 08:09:10;;;;;;;34.22;13.80;;;;;;;;;;5124309;27;20015;-74
2021/01/28 08:11:36;;;;;;;36.42;14.13;;;;;;;;;;5110846;28;20093;-74
2021/01/28 08:14:03;;;;;;;38.22;15.15;;;;;;;;;;5108882;27;20028;-74
2021/01/28 08:16:31;;;;;;;37.22;14.93;;;;;;;;;;5111179;27;20088;-74
2021/01/28 08:19:10;;;;;;;37.47;14.73;;;;;;;;;;5111306;27;20043;-75
2021/01/28 08:21:36;;;;;;;41.28;16.00;;;;;;;;;;5109568;27;20512;-75
2021/01/28 08:24:20;;;;;;;42.72;15.13;;;;;;;;;;5108506;27;20028;-75
2021/01/28 08:26:46;;;;;;;44.33;16.23;;;;;;;;;;5110703;28;20040;-75
2021/01/28 08:29:17;;;;;;;57.47;18.45;;;;;;;;;;5107212;27;20493;-75
2021/01/28 08:32:03;;;;;;;38.00;16.13;;;;;;;;;;5109715;27;20504;-75
2021/01/28 08:34:31;;;;;;;46.03;17.00;;;;;;;;;;5121436;27;20032;-74
2021/01/28 08:36:58;;;;;;;35.53;16.05;;;;;;;;;;5115152;27;20039;-74
2021/01/28 08:39:33;;;;;;;39.97;16.67;;;;;;;;;;5106106;28;20034;-74
2021/01/28 08:42:02;;;;;;;36.90;15.07;;;;;;;;;;5111095;28;20035;-74
2021/01/28 08:44:28;;;;;;;25.90;12.38;;;;;;;;;;5108379;27;21291;-74
2021/01/28 08:47:13;;;;;;;29.40;12.10;;;;;;;;;;5107092;27;20027;-74
2021/01/28 08:49:39;;;;;;;66.72;19.33;;;;;;;;;;5111464;28;20023;-74
2021/01/28 08:52:10;;;;;;;45.20;17.00;;;;;;;;;;5108155;27;20024;-74
2021/01/28 08:54:38;;;;;;;29.33;12.85;;;;;;;;;;5110850;28;20079;-74
2021/01/28 08:57:05;;;;;;;26.70;12.75;;;;;;;;;;5123538;27;20056;-74
2021/01/28 08:59:32;;;;;;;35.78;14.68;;;;;;;;;;5109458;28;20047;-74
2021/01/28 09:01:59;;;;;;;55.30;18.20;;;;;;;;;;5100487;27;20170;-74
2021/01/28 09:04:28;;;;;;;66.30;19.67;;;;;;;;;;5111968;28;20106;-75
2021/01/28 09:06:54;;;;;;;43.28;14.63;;;;;;;;;;5110602;28;20402;-75
2021/01/28 09:09:25;;;;;;;29.42;13.25;;;;;;;;;;5113378;27;20047;-75
2021/01/28 09:11:52;;;;;;;36.50;13.00;;;;;;;;;;5114489;27;20047;-74
2021/01/28 09:14:28;;;;;;;29.45;11.05;;;;;;;;;;5111495;28;20028;-75
2021/01/28 09:16:56;;;;;;;31.48;12.00;;;;;;;;;;5097870;28;20024;-75
2021/01/28 09:19:23;;;;;;;21.23;8.32;;;;;;;;;;5106776;27;20012;-75
2021/01/28 09:21:52;;;;;;;20.13;7.82;;;;;;;;;;5109142;27;20036;-75
2021/01/28 09:24:30;;;;;;;14.43;5.07;;;;;;;;;;5108559;27;20119;-75
2021/01/28 09:27:07;;;;;;;12.45;3.67;;;;;;;;;;5115938;27;20050;-76
2021/01/28 09:29:36;;;;;;;19.17;4.28;;;;;;;;;;5109618;27;20027;-77
2021/01/28 09:32:18;;;;;;;12.70;3.42;;;;;;;;;;5103534;28;20028;-79
2021/01/28 09:34:44;;;;;;;15.15;2.90;;;;;;;;;;5113850;27;20065;-79
2021/01/28 09:37:13;;;;;;;19.65;4.05;;;;;;;;;;5108257;27;20028;-80
2021/01/28 09:39:41;;;;;;;16.42;2.78;;;;;;;;;;5111688;27;20027;-77
2021/01/28 09:42:12;;;;;;;12.05;2.40;;;;;;;;;;5106408;27;20481;-76
2021/01/28 09:44:42;;;;;;;9.27;2.17;;;;;;;;;;5107119;28;20027;-76
2021/01/28 09:47:28;;;;;;;9.48;2.90;;;;;;;;;;5109550;28;20019;-75
2021/01/28 09:49:55;;;;;;;9.07;1.70;;;;;;;;;;5107891;27;20291;-77
2021/01/28 09:52:29;;;;;;;8.63;2.22;;;;;;;;;;5102443;27;20544;-76
2021/01/28 09:54:59;;;;;;;9.40;1.83;;;;;;;;;;5103678;28;20404;-76
2021/01/28 09:57:26;;;;;;;6.15;1.63;;;;;;;;;;5106547;28;20456;-76
2021/01/28 09:59:53;;;;;;;6.15;1.50;;;;;;;;;;5105744;28;20011;-76
2021/01/28 10:02:32;;;;;;;10.73;1.73;;;;;;;;;;5092137;28;20110;-75
2021/01/28 10:04:58;;;;;;;7.18;1.98;;;;;;;;;;5103996;28;20054;-77
2021/01/28 10:07:25;;;;;;;8.02;1.60;;;;;;;;;;5114123;27;20071;-84
2021/01/28 10:09:51;;;;;;;13.00;1.98;;;;;;;;;;5120823;27;20076;-76
2021/01/28 10:12:18;;;;;;;14.10;3.30;;;;;;;;;;5104215;28;20034;-76
2021/01/28 10:14:44;;;;;;;8.05;2.67;;;;;;;;;;5103741;28;20102;-75
2021/01/28 10:17:12;;;;;;;26.42;7.75;;;;;;;;;;5108534;27;20024;-75
2021/01/28 10:19:38;;;;;;;20.67;4.35;;;;;;;;;;5108695;28;20043;-77
2021/01/28 10:22:04;;;;;;;20.73;3.85;;;;;;;;;;5100032;28;20031;-75
2021/01/28 10:24:30;;;;;;;17.98;2.50;;;;;;;;;;5100400;28;20032;-76
2021/01/28 10:26:56;;;;;;;11.70;2.78;;;;;;;;;;5105975;28;20097;-75
2021/01/28 10:29:22;;;;;;;7.65;1.33;;;;;;;;;;5099776;28;20019;-73
2021/01/28 10:31:48;;;;;;;19.15;3.08;;;;;;;;;;5107988;28;20019;-76
2021/01/28 10:34:14;;;;;;;12.98;4.40;;;;;;;;;;5109784;28;20016;-75
2021/01/28 10:36:40;;;;;;;13.68;3.17;;;;;;;;;;5108078;28;20028;-77
2021/01/28 10:39:06;;;;;;;9.55;1.75;;;;;;;;;;5103793;28;20023;-75
2021/01/28 10:41:32;;;;;;;15.00;2.50;;;;;;;;;;5097755;28;20028;-79
2021/01/28 10:43:59;;;;;;;12.75;3.00;;;;;;;;;;5106008;28;20028;-76
2021/01/28 10:46:25;;;;;;;17.50;3.65;;;;;;;;;;5109508;28;20393;-75
2021/01/28 10:48:51;;;;;;;18.52;3.20;;;;;;;;;;5103764;28;20024;-73
2021/01/28 10:51:17;;;;;;;5.90;1.48;;;;;;;;;;5112877;27;20012;-72
2021/01/28 10:53:43;;;;;;;11.98;2.25;;;;;;;;;;5112655;28;20023;-72
2021/01/28 10:56:10;;;;;;;11.07;2.35;;;;;;;;;;5114077;27;20110;-74
2021/01/28 10:58:36;;;;;;;16.73;3.63;;;;;;;;;;5125245;27;20016;-76
2021/01/28 11:01:03;;;;;;;13.85;3.13;;;;;;;;;;5123593;27;20015;-74
2021/01/28 11:03:29;;;;;;;9.85;2.22;;;;;;;;;;5112919;27;20027;-74
2021/01/28 11:05:56;;;;;;;17.10;3.38;;;;;;;;;;5113479;28;20012;-74
2021/01/28 11:08:22;;;;;;;14.15;3.08;;;;;;;;;;5106979;27;20111;-74
2021/01/28 11:10:48;;;;;;;9.00;1.88;;;;;;;;;;5103656;27;20134;-74
2021/01/28 11:13:14;;;;;;;19.85;3.42;;;;;;;;;;5108193;28;20472;-74
2021/01/28 11:15:40;;;;;;;12.98;3.30;;;;;;;;;;5114014;27;20092;-72
2021/01/28 11:18:07;;;;;;;16.65;3.50;;;;;;;;;;5114470;28;20028;-74
2021/01/28 11:20:35;;;;;;;11.63;3.95;;;;;;;;;;5114811;27;20016;-81
2021/01/28 11:23:01;;;;;;;19.05;2.92;;;;;;;;;;5109394;28;20030;-78
2021/01/28 11:25:28;;;;;;;18.52;3.63;;;;;;;;;;5111269;28;20027;-79
2021/01/28 11:27:54;;;;;;;23.23;4.75;;;;;;;;;;5109878;28;20030;-77
2021/01/28 11:30:22;;;;;;;22.27;5.40;;;;;;;;;;5118031;27;20019;-76
2021/01/28 11:32:48;;;;;;;38.00;5.88;;;;;;;;;;5106662;27;20118;-79
2021/01/28 11:35:15;;;;;;;55.05;10.30;;;;;;;;;;5114558;27;20030;-79
2021/01/28 11:37:45;;;;;;;52.00;8.27;;;;;;;;;;5111975;28;20032;-78
2021/01/28 11:40:12;;;;;;;47.13;6.95;;;;;;;;;;5108009;27;20027;-80
2021/01/28 11:42:38;;;;;;;44.78;8.88;;;;;;;;;;5097862;28;20032;-76
2021/01/28 11:45:05;;;;;;;51.72;8.63;;;;;;;;;;5106576;27;20046;-76
2021/01/28 11:47:31;;;;;;;59.72;10.65;;;;;;;;;;5103641;28;20393;-76
2021/01/28 11:49:57;;;;;;;43.53;7.70;;;;;;;;;;5107392;27;20094;-83
2021/01/28 11:52:23;;;;;;;69.10;11.73;;;;;;;;;;5104234;27;20051;-79
2021/01/28 11:54:49;;;;;;;46.53;7.28;;;;;;;;;;5109966;27;20027;-78
2021/01/28 11:57:15;;;;;;;40.33;8.05;;;;;;;;;;5102053;28;20039;-76
2021/01/28 11:59:42;;;;;;;56.22;9.32;;;;;;;;;;5101122;28;20037;-76
2021/01/28 12:02:08;;;;;;;34.28;6.47;;;;;;;;;;5102571;27;20074;-75
2021/01/28 12:04:34;;;;;;;36.10;5.57;;;;;;;;;;5112578;27;20413;-81
2021/01/28 12:07:00;;;;;;;25.65;5.70;;;;;;;;;;5104117;28;20035;-78
2021/01/28 12:09:26;;;;;;;53.53;9.18;;;;;;;;;;5105944;27;20420;-79
2021/01/28 12:11:52;;;;;;;62.53;9.77;;;;;;;;;;5109235;28;20031;-86
2021/01/28 12:14:18;;;;;;;47.22;8.32;;;;;;;;;;5116606;27;20023;-78
2021/01/28 12:16:44;;;;;;;52.22;7.82;;;;;;;;;;5111225;28;20028;-76
2021/01/28 12:19:10;;;;;;;48.20;6.53;;;;;;;;;;5111500;27;20027;-79
2021/01/28 12:21:36;;;;;;;23.25;5.63;;;;;;;;;;5102341;27;20015;-81
2021/01/28 12:24:02;;;;;;;51.33;6.55;;;;;;;;;;5104269;27;20023;-82
2021/01/28 12:26:28;;;;;;;44.88;6.28;;;;;;;;;;5109085;27;20422;-81
2021/01/28 12:28:54;;;;;;;34.80;7.78;;;;;;;;;;5108346;27;20034;-78
2021/01/28 12:31:20;;;;;;;39.78;5.97;;;;;;;;;;5104529;28;20026;-79
2021/01/28 12:33:46;;;;;;;36.10;6.05;;;;;;;;;;5108074;27;20107;-83
2021/01/28 12:36:12;;;;;;;43.05;7.15;;;;;;;;;;5103623;28;20020;-82
2021/01/28 12:38:38;;;;;;;32.40;5.68;;;;;;;;;;5109565;27;20032;-81
2021/01/28 12:41:05;;;;;;;54.47;6.68;;;;;;;;;;5100203;27;20031;-81
2021/01/28 12:43:31;;;;;;;40.10;6.20;;;;;;;;;;5111747;27;20031;-79
2021/01/28 12:45:58;;;;;;;56.65;8.70;;;;;;;;;;5096981;27;20036;-82
2021/01/28 12:48:24;;;;;;;50.47;10.65;;;;;;;;;;5098365;27;20016;-80
2021/01/28 12:50:50;;;;;;;59.80;8.55;;;;;;;;;;5103725;28;20034;-80
2021/01/28 12:53:16;;;;;;;37.38;6.45;;;;;;;;;;5098667;28;20024;-79
2021/01/28 12:55:42;;;;;;;42.53;7.93;;;;;;;;;;5096949;28;20047;-80
2021/01/28 12:58:10;;;;;;;43.95;8.80;;;;;;;;;;5099890;27;20023;-79
2021/01/28 13:00:37;;;;;;;40.97;6.97;;;;;;;;;;5102343;27;20031;-77
2021/01/28 13:03:03;;;;;;;30.30;7.07;;;;;;;;;;5101992;28;20501;-77
2021/01/28 13:05:29;;;;;;;54.30;8.50;;;;;;;;;;5101561;27;20038;-77
2021/01/28 13:07:55;;;;;;;25.42;5.22;;;;;;;;;;5105884;27;20085;-83
2021/01/28 13:10:22;;;;;;;48.53;8.25;;;;;;;;;;5106630;27;20052;-78
2021/01/28 13:12:48;;;;;;;50.47;8.32;;;;;;;;;;5101846;28;20032;-77
2021/01/28 13:15:17;;;;;;;54.08;8.05;;;;;;;;;;5108358;27;21639;-84
2021/01/28 13:17:43;;;;;;;59.92;11.23;;;;;;;;;;5103837;27;20054;-82
2021/01/28 13:20:10;;;;;;;50.88;9.30;;;;;;;;;;5103687;28;20118;-82
2021/01/28 13:22:36;;;;;;;51.55;10.43;;;;;;;;;;5101348;27;20012;-78
2021/01/28 13:25:03;;;;;;;58.88;10.43;;;;;;;;;;5107313;27;20027;-79
2021/01/28 13:27:29;;;;;;;46.58;7.78;;;;;;;;;;5108099;28;20491;-87
2021/01/28 13:29:55;;;;;;;64.65;10.23;;;;;;;;;;5101830;27;20027;-78
2021/01/28 13:32:21;;;;;;;54.60;8.95;;;;;;;;;;5100982;27;20477;-80
2021/01/28 13:34:47;;;;;;;54.30;9.00;;;;;;;;;;5104793;28;20116;-79
2021/01/28 13:37:13;;;;;;;64.82;8.63;;;;;;;;;;5107675;27;20035;-82
2021/01/28 13:39:39;;;;;;;48.47;9.20;;;;;;;;;;5109978;28;20020;-78
2021/01/28 13:42:05;;;;;;;42.35;7.80;;;;;;;;;;5107999;27;20024;-82
2021/01/28 13:44:31;;;;;;;49.53;8.20;;;;;;;;;;5111620;27;20445;-86
2021/01/28 13:46:57;;;;;;;48.80;7.53;;;;;;;;;;5109957;28;20089;-82
2021/01/28 13:49:23;;;;;;;54.97;10.63;;;;;;;;;;5125636;27;20145;-79
2021/01/28 13:51:49;;;;;;;64.25;9.57;;;;;;;;;;5110292;27;20027;-80
2021/01/28 13:54:15;;;;;;;56.00;9.80;;;;;;;;;;5111425;27;20023;-80
2021/01/28 13:56:41;;;;;;;49.05;8.73;;;;;;;;;;5107483;28;20039;-82
2021/01/28 13:59:07;;;;;;;58.28;9.25;;;;;;;;;;5110164;28;20027;-79
2021/01/28 14:01:33;;;;;;;55.72;8.50;;;;;;;;;;5106689;28;20043;-82
2021/01/28 14:03:59;;;;;;;55.20;7.47;;;;;;;;;;5111822;28;20039;-82
2021/01/28 14:06:26;;;;;;;40.42;8.30;;;;;;;;;;5110059;28;20133;-79
2021/01/28 14:08:52;;;;;;;39.88;7.38;;;;;;;;;;5109625;28;20157;-83
2021/01/28 14:11:18;;;;;;;31.85;6.43;;;;;;;;;;5101566;28;20023;-82
2021/01/28 14:13:44;;;;;;;44.33;8.13;;;;;;;;;;5110899;28;20107;-78
2021/01/28 14:16:10;;;;;;;40.33;7.40;;;;;;;;;;5109897;28;20046;-81
2021/01/28 14:18:38;;;;;;;35.15;7.95;;;;;;;;;;5103067;28;20663;-78
2021/01/28 14:21:05;;;;;;;43.30;7.00;;;;;;;;;;5115564;27;20143;-81
2021/01/28 14:23:31;;;;;;;62.00;9.10;;;;;;;;;;5106072;28;20020;-79
2021/01/28 14:25:57;;;;;;;66.82;11.38;;;;;;;;;;5109687;28;20019;-78